Meteo Giornale » Osservazioni meteo Francia » Melun

ore: 11:30 - Osservazioni Meteo Melun
Lat. 48° 37' N Lon. 2° 41' E Alt. 95 metri s.l.m.

coperto Europe/Paris

21 °C

Coperto

Temp. 24 Ore

8 °C

21 °C

Sud-Ovest

16.7 Km/h

Dew point 11 °C

Umidità 52 %

Visibilità  10 Km

Il sole sorge alle ore 05:46

Il sole tramonta alle ore 21:57

Data e Ora Cielo e Fenomeni T °C DP °C Um. % Pres. hPa Vis. km Vento km/h
Oggi h: 11:30 coperto Coperto 21 11 52 1020 10 SO 16.7
Oggi h: 11:00 coperto Coperto 20 11 56 1020 10 SO 14.8
Oggi h: 10:30 coperto Coperto 19 12 63 1020 10 S/SO 13
Oggi h: 10:00 coperto Coperto 18 11 63 1020 10 S 11.1
Oggi h: 09:30 sereno Sereno 17 10 63 1021 10 S 13
Oggi h: 09:00 sereno Sereno 15 12 82 1021 10 S 9.3
Oggi h: 08:30 sereno Sereno 15 12 82 1021 10 N 5.5
Oggi h: 08:00 sereno Sereno 13 11 87 1021 10 N 5.5
Oggi h: 07:30 sereno Sereno 12 10 87 1021 10 N 3.7
Oggi h: 06:30 sereno Sereno 9 8 93 1021 10 N 3.7
Oggi h: 06:00 sereno Sereno 8 8 100 1021 10 N 5.5
Oggi h: 05:30 sereno Sereno 9 8 93 1021 10 N 5.5
Oggi h: 05:00 sereno Sereno 9 9 100 1021 10 N 3.7
Oggi h: 04:30 sereno Sereno 10 9 93 1021 10 N 3.7
Oggi h: 04:00 sereno Sereno 10 8 87 1021 10 N 1.8
Oggi h: 03:30 sereno Sereno 10 9 93 1021 10 N 1.8
Oggi h: 03:00 sereno Sereno 11 9 87 1022 10 N 0
Oggi h: 02:30 sereno Sereno 11 9 87 1022 10 N 5.5
Oggi h: 02:00 sereno Sereno 11 9 87 1022 10 N 5.5
Oggi h: 01:30 sereno Sereno 11 8 81 1022 10 N 0
Oggi h: 01:00 sereno Sereno 11 9 87 1022 10 N 1.8
Oggi h: 00:30 sereno Sereno 12 9 81 1022 10 N 3.7
Oggi h: 00:00 sereno Sereno 12 9 81 1022 10 N 3.7
Ieri h: 23:30 sereno Sereno 13 10 81 1022 10 N 1.8
Ieri h: 23:00 sereno Sereno 13 9 76 1022 10 N 1.8
Ieri h: 22:30 sereno Sereno 14 9 71 1022 10 N 1.8
Ieri h: 22:00 sereno Sereno 16 9 63 1022 10 N 5.5
Ieri h: 21:30 sereno Sereno 18 11 63 1021 10 N 5.5
Ieri h: 21:00 sereno Sereno 19 12 63 1021 10 N 3.7
Ieri h: 20:30 sereno Sereno 20 11 56 1021 10 N 3.7
Ieri h: 20:00 sereno Sereno 21 12 56 1021 10 N 0
Ieri h: 19:30 sereno Sereno 21 11 52 1021 10 N 5.5
Ieri h: 19:00 sereno Sereno 21 10 49 1021 10 O/NO 7.4
Ieri h: 18:30 sereno Sereno 20 11 56 1021 10 N 7.4
Ieri h: 18:00 sereno Sereno 19 11 59 1021 10 N/NO 7.4
Ieri h: 17:30 sereno Sereno 19 11 59 1021 10 NO 9.3
Ieri h: 17:00 coperto Coperto 19 10 55 1021 10 NO 9.3
Ieri h: 16:30 coperto Coperto 19 10 55 1021 10 NO 11.1
Ieri h: 16:00 coperto Coperto 19 11 59 1021 10 NO 11.1
Ieri h: 15:30 coperto Coperto 18 10 59 1021 10 N/NO 13
Ieri h: 15:00 coperto Coperto 18 11 63 1021 10 N/NO 16.7
Ieri h: 14:30 coperto Coperto 18 11 63 1021 10 NO 16.7
Ieri h: 14:00 coperto Coperto 18 11 63 1021 10 NO 14.8
Ieri h: 13:30 coperto Coperto 17 12 72 1021 10 NO 14.8
Ieri h: 13:00 coperto Coperto 17 11 67 1021 10 NO 13